Time;durP1;ratioP1;P1;durP2;ratioP2;P2;SDS_P1;SDS_P2;PMS_P1;PMS_P2;Temp;Humidity;BMP_temperature;BMP_pressure;BME280_temperature;BME280_humidity;BME280_pressure;Samples;Min_cycle;Max_cycle;Signal;HPM_P1;HPM_P2
2022/09/21 00:01:04;;;;;;;3.67;2.20;;;;;;;14.47;87.77;102790.09;5065123;28;20028;-61
2022/09/21 00:03:30;;;;;;;5.30;2.30;;;;;;;14.51;87.66;102790.00;5067995;28;20379;-61
2022/09/21 00:06:10;;;;;;;6.82;2.10;;;;;;;14.57;86.96;102790.81;5068361;28;20032;-59
2022/09/21 00:08:35;;;;;;;2.88;2.03;;;;;;;14.59;86.42;102787.19;5046772;28;20041;-64
2022/09/21 00:11:02;;;;;;;9.02;2.25;;;;;;;14.56;85.87;102781.94;5048388;28;20041;-62
2022/09/21 00:13:28;;;;;;;2.85;2.10;;;;;;;14.50;85.37;102780.31;5048138;28;20028;-61
2022/09/21 00:15:55;;;;;;;4.93;1.90;;;;;;;14.49;85.30;102781.22;5047838;28;20032;-61
2022/09/21 00:18:21;;;;;;;8.18;2.38;;;;;;;14.53;85.28;102776.72;5049990;28;20029;-61
2022/09/21 00:20:46;;;;;;;7.95;2.10;;;;;;;14.51;85.50;102784.69;5067427;28;20046;-62
2022/09/21 00:23:12;;;;;;;5.07;1.85;;;;;;;14.47;86.05;102776.81;5067908;28;20032;-63
2022/09/21 00:25:37;;;;;;;11.93;2.45;;;;;;;14.45;86.36;102773.34;5067340;28;20039;-60
2022/09/21 00:28:03;;;;;;;5.80;1.80;;;;;;;14.40;87.24;102779.63;5066986;28;20029;-60
2022/09/21 00:30:28;;;;;;;3.83;1.90;;;;;;;14.37;87.71;102776.13;5066891;28;20101;-60
2022/09/21 00:32:54;;;;;;;7.18;2.22;;;;;;;14.34;88.06;102781.50;5067227;28;20054;-60
2022/09/21 00:35:19;;;;;;;7.00;1.90;;;;;;;14.32;88.25;102776.22;5066987;28;20479;-63
2022/09/21 00:37:44;;;;;;;5.72;2.00;;;;;;;14.29;88.46;102776.28;5068130;28;20028;-63
2022/09/21 00:40:11;;;;;;;7.22;2.15;;;;;;;14.27;88.78;102773.66;5067487;28;20422;-61
2022/09/21 00:42:36;;;;;;;7.18;2.22;;;;;;;14.23;88.79;102769.31;5049647;28;20463;-61
2022/09/21 00:45:03;;;;;;;5.10;1.80;;;;;;;14.25;88.82;102769.28;5066051;28;20036;-61
2022/09/21 00:47:35;;;;;;;3.30;1.80;;;;;;;14.20;89.06;102779.09;5066290;28;20033;-60
2022/09/21 00:50:04;;;;;;;6.03;2.30;;;;;;;14.12;89.45;102771.31;5065967;28;20621;-60
2022/09/21 00:52:32;;;;;;;4.22;2.13;;;;;;;14.05;89.67;102774.97;5065848;28;20788;-60
2022/09/21 00:55:21;;;;;;;6.03;2.38;;;;;;;13.97;89.88;102772.44;5066749;28;20033;-61
2022/09/21 00:57:49;;;;;;;4.35;2.17;;;;;;;13.92;89.99;102783.13;5065233;28;20071;-61
2022/09/21 01:00:14;;;;;;;5.82;1.92;;;;;;;13.89;90.13;102764.63;5065236;28;20124;-61
2022/09/21 01:02:40;;;;;;;6.68;1.95;;;;;;;13.84;90.59;102777.94;5065305;28;20027;-59
2022/09/21 01:05:07;;;;;;;7.55;2.08;;;;;;;13.87;90.25;102772.59;5064904;28;20024;-60
2022/09/21 01:07:36;;;;;;;9.43;2.10;;;;;;;13.80;90.33;102776.25;5064900;28;20031;-61
2022/09/21 01:10:06;;;;;;;9.05;2.38;;;;;;;13.72;90.65;102780.78;5065907;28;20097;-60
2022/09/21 01:15:29;;;;;;;8.75;2.13;;;;;;;13.61;91.08;102781.81;5026138;22;20629;-64
2022/09/21 01:18:07;;;;;;;7.68;2.42;;;;;;;13.55;91.44;102776.66;5026518;28;20026;-65
2022/09/21 01:21:06;;;;;;;5.45;1.95;;;;;;;13.52;91.11;102776.69;5027252;28;20034;-65
2022/09/21 01:23:39;;;;;;;;;;;;;;;13.45;91.64;102780.31;5007264;28;20112;-64
2022/09/21 01:26:42;;;;;;;5.93;2.50;;;;;;;13.39;91.65;102783.88;5004857;28;19914;-65
2022/09/21 01:29:30;;;;;;;8.25;2.10;;;;;;;13.29;91.99;102783.16;5005437;28;20034;-64
2022/09/21 01:32:14;;;;;;;5.28;2.05;;;;;;;13.24;92.47;102779.69;5031346;28;20044;-65
2022/09/21 01:34:47;;;;;;;3.85;1.88;;;;;;;13.25;92.23;102776.16;5044845;28;20029;-65
2022/09/21 01:37:17;;;;;;;6.78;2.08;;;;;;;13.20;92.47;102776.22;5045799;28;20449;-64
2022/09/21 01:39:46;;;;;;;5.68;2.70;;;;;;;13.18;92.28;102782.44;5045261;28;20074;-66
2022/09/21 01:42:12;;;;;;;5.30;2.38;;;;;;;13.13;92.41;102782.50;5045651;28;20671;-66
2022/09/21 01:44:39;;;;;;;6.10;2.35;;;;;;;13.10;92.69;102774.59;5015140;28;20034;-65
2022/09/21 01:47:07;;;;;;;8.30;2.33;;;;;;;13.09;92.79;102773.72;5021575;28;20029;-65
2022/09/21 01:49:37;;;;;;;6.47;2.25;;;;;;;13.08;92.73;102774.63;5008867;28;20480;-65
2022/09/21 01:52:07;;;;;;;;;;;;;;;13.03;92.75;102781.72;5010875;28;20076;-65
2022/09/21 01:54:39;;;;;;;8.27;2.17;;;;;;;12.97;92.71;102779.16;5009784;28;20613;-64
2022/09/21 01:57:27;;;;;;;3.53;1.92;;;;;;;12.87;92.49;102781.94;5010180;28;20084;-64
2022/09/21 01:59:55;;;;;;;6.95;2.10;;;;;;;12.82;92.60;102782.91;5010108;28;20037;-65
2022/09/21 02:02:36;;;;;;;3.58;1.90;;;;;;;12.75;92.51;102775.03;5008666;28;20021;-65
2022/09/21 02:05:03;;;;;;;7.35;2.30;;;;;;;12.70;92.91;102770.69;5009881;28;20725;-65
2022/09/21 02:07:30;;;;;;;4.00;2.33;;;;;;;12.64;93.19;102780.44;5010557;28;20608;-65
2022/09/21 02:09:56;;;;;;;5.65;2.20;;;;;;;12.62;93.41;102781.38;5010777;28;20049;-64
2022/09/21 02:12:22;;;;;;;7.97;2.25;;;;;;;12.59;93.56;102777.00;5008670;28;20468;-64
2022/09/21 02:14:48;;;;;;;8.07;2.60;;;;;;;12.56;93.21;102778.78;5011179;28;20061;-64
2022/09/21 02:17:33;;;;;;;6.95;2.45;;;;;;;12.52;93.67;102775.28;5009340;28;20033;-64
2022/09/21 02:20:19;;;;;;;7.30;2.67;;;;;;;12.49;93.51;102777.97;5020824;28;20068;-66
2022/09/21 02:22:56;;;;;;;7.93;2.67;;;;;;;12.45;93.23;102781.53;5029863;28;20026;-65
2022/09/21 02:25:56;;;;;;;5.55;2.33;;;;;;;12.41;93.42;102777.19;5028284;28;20028;-65
2022/09/21 02:28:52;;;;;;;6.05;2.40;;;;;;;12.36;93.90;102786.03;5029089;28;20480;-66
2022/09/21 02:31:28;;;;;;;5.63;2.28;;;;;;;12.34;93.57;102784.31;5023550;28;20034;-64
2022/09/21 02:34:03;;;;;;;4.45;2.40;;;;;;;12.31;93.66;102781.69;5037809;28;20108;-65
2022/09/21 02:36:52;;;;;;;6.28;2.85;;;;;;;12.28;93.90;102785.22;5027808;28;20025;-66
2022/09/21 02:39:18;;;;;;;;;;;;;;;12.25;93.91;102779.97;5023025;28;20040;-65
2022/09/21 02:42:04;;;;;;;4.15;2.47;;;;;;;12.22;94.06;102775.59;5029371;28;20008;-66
2022/09/21 02:44:37;;;;;;;6.20;2.58;;;;;;;12.21;93.77;102771.22;5028620;28;20060;-65
2022/09/21 02:47:23;;;;;;;11.32;3.05;;;;;;;12.18;93.97;102770.34;5027770;28;20021;-64
2022/09/21 02:49:53;;;;;;;6.00;3.00;;;;;;;12.17;94.43;102771.25;5030262;28;20029;-65
2022/09/21 02:52:19;;;;;;;5.45;2.80;;;;;;;12.16;94.34;102764.22;5039143;28;20033;-63
2022/09/21 02:54:47;;;;;;;7.35;3.28;;;;;;;12.15;94.30;102771.25;5050048;28;20074;-64
2022/09/21 02:57:15;;;;;;;7.07;2.90;;;;;;;12.11;94.30;102761.63;5048439;28;20033;-65
2022/09/21 02:59:41;;;;;;;5.78;2.60;;;;;;;12.11;93.90;102770.44;5047788;28;20510;-62
2022/09/21 03:02:08;;;;;;;6.28;3.10;;;;;;;12.07;94.37;102771.31;5048784;28;20044;-67
2022/09/21 03:04:34;;;;;;;6.07;3.00;;;;;;;12.00;94.15;102764.31;5048775;28;20032;-65
2022/09/21 03:06:59;;;;;;;8.48;3.70;;;;;;;11.99;94.12;102774.03;5049088;28;20033;-65
2022/09/21 03:09:24;;;;;;;7.40;3.05;;;;;;;11.94;94.37;102774.94;5049500;28;20471;-65
2022/09/21 03:11:50;;;;;;;8.95;3.35;;;;;;;11.91;94.37;102767.91;5050040;28;20514;-64
2022/09/21 03:14:18;;;;;;;9.00;3.70;;;;;;;11.87;94.52;102768.84;5049739;28;20053;-63
2022/09/21 03:16:43;;;;;;;8.02;3.20;;;;;;;11.83;94.26;102778.53;5033476;28;20108;-64
2022/09/21 03:19:09;;;;;;;5.93;3.42;;;;;;;11.78;94.36;102780.38;5029927;28;20112;-65
2022/09/21 03:21:34;;;;;;;7.47;3.30;;;;;;;11.77;94.41;102781.22;5029367;28;20037;-65
2022/09/21 03:23:59;;;;;;;11.02;3.80;;;;;;;11.71;94.45;102783.94;5029001;28;20021;-65
2022/09/21 03:26:25;;;;;;;5.78;3.22;;;;;;;11.80;94.17;102786.47;5030584;28;20499;-66
2022/09/21 03:28:53;;;;;;;6.20;3.15;;;;;;;11.78;94.38;102785.66;5045323;28;20031;-65
2022/09/21 03:31:18;;;;;;;4.07;2.90;;;;;;;11.78;93.98;102780.38;5049189;28;20032;-65
2022/09/21 03:33:44;;;;;;;4.75;2.85;;;;;;;11.66;94.46;102788.38;5030079;28;20087;-66
2022/09/21 03:36:10;;;;;;;4.65;2.78;;;;;;;11.66;94.14;102791.00;5029328;28;20523;-65
2022/09/21 03:38:36;;;;;;;2.85;2.60;;;;;;;11.65;94.39;102789.25;5029252;28;20039;-65
2022/09/21 03:41:02;;;;;;;5.70;2.50;;;;;;;11.58;94.09;102791.94;5029035;28;20029;-64
2022/09/21 03:43:27;;;;;;;3.80;2.60;;;;;;;11.53;94.71;102791.06;5028741;28;20032;-65
2022/09/21 03:45:52;;;;;;;15.18;4.25;;;;;;;11.44;94.79;102791.16;5028479;28;20021;-66
2022/09/21 03:48:18;;;;;;;6.50;2.88;;;;;;;11.38;94.68;102797.34;5026576;28;20576;-65
2022/09/21 03:50:43;;;;;;;7.70;2.78;;;;;;;11.34;94.70;102800.88;5029995;28;20017;-65
2022/09/21 03:53:09;;;;;;;3.20;2.45;;;;;;;11.32;94.32;102797.38;5033765;28;20025;-66
2022/09/21 03:55:35;;;;;;;3.80;2.58;;;;;;;11.30;94.49;102794.75;5031832;28;20025;-65
2022/09/21 03:58:00;;;;;;;3.92;2.70;;;;;;;11.27;94.69;102793.88;5024673;28;20022;-63
2022/09/21 04:00:26;;;;;;;5.45;2.97;;;;;;;11.22;94.69;102793.91;5021785;28;20025;-66
2022/09/21 04:02:52;;;;;;;4.32;2.78;;;;;;;11.20;94.77;102800.97;5024182;28;20022;-65
2022/09/21 04:05:17;;;;;;;8.07;3.20;;;;;;;11.21;94.62;102794.78;5032092;28;20076;-65
2022/09/21 04:07:46;;;;;;;5.03;2.97;;;;;;;11.20;95.02;102798.31;5033718;28;20025;-65
2022/09/21 04:10:14;;;;;;;6.03;2.83;;;;;;;11.19;94.67;102792.16;5026132;28;20033;-65
2022/09/21 04:12:42;;;;;;;5.43;3.42;;;;;;;11.20;94.88;102793.06;5031220;28;20109;-64
2022/09/21 04:15:10;;;;;;;8.02;3.63;;;;;;;11.22;95.13;102785.97;5023955;28;20124;-64
2022/09/21 04:17:35;;;;;;;6.87;3.17;;;;;;;11.21;95.13;102794.78;5035035;28;20033;-65
2022/09/21 04:20:01;;;;;;;4.03;3.47;;;;;;;11.19;95.50;102796.56;5048294;28;20047;-64
2022/09/21 04:22:27;;;;;;;7.57;4.22;;;;;;;11.21;95.26;102795.69;5047248;28;20104;-64
2022/09/21 04:24:52;;;;;;;5.65;3.72;;;;;;;11.22;95.49;102796.53;5046982;28;20188;-67
2022/09/21 04:27:18;;;;;;;9.02;4.00;;;;;;;11.22;95.32;102786.88;5048246;28;20040;-65
2022/09/21 04:29:43;;;;;;;6.97;4.25;;;;;;;11.28;95.75;102793.88;5047505;28;20022;-65
2022/09/21 04:32:09;;;;;;;10.02;4.20;;;;;;;11.34;95.97;102791.22;5047140;28;20059;-64
2022/09/21 04:34:38;;;;;;;8.45;4.32;;;;;;;11.40;95.91;102797.31;5047756;28;20454;-66
2022/09/21 04:37:12;;;;;;;6.70;4.00;;;;;;;11.45;96.52;102787.63;5030838;28;20052;-65
2022/09/21 04:39:37;;;;;;;6.70;3.85;;;;;;;11.51;96.33;102798.16;5027620;28;20021;-64
2022/09/21 04:42:04;;;;;;;5.65;3.75;;;;;;;11.53;96.17;102783.16;5026976;28;20025;-64
2022/09/21 04:44:29;;;;;;;5.13;3.80;;;;;;;11.61;96.30;102789.28;5028046;28;20033;-64
2022/09/21 04:46:55;;;;;;;6.72;4.05;;;;;;;11.64;96.28;102793.66;5027047;28;20087;-64
2022/09/21 04:49:21;;;;;;;8.98;4.00;;;;;;;11.66;95.93;102791.88;5039195;28;20116;-66
2022/09/21 04:51:46;;;;;;;5.40;3.90;;;;;;;11.70;96.08;102792.72;5047668;28;20116;-64
2022/09/21 04:54:12;;;;;;;9.45;5.38;;;;;;;11.72;96.23;102789.22;5046833;28;20028;-65
2022/09/21 04:56:38;;;;;;;14.68;4.40;;;;;;;11.75;96.43;102790.94;5047684;28;20029;-64
2022/09/21 04:59:03;;;;;;;9.38;3.90;;;;;;;11.75;96.30;102791.81;5047522;28;20111;-64
2022/09/21 05:01:29;;;;;;;8.07;4.20;;;;;;;11.80;96.25;102794.41;5039380;28;20041;-67
2022/09/21 05:03:57;;;;;;;6.22;4.25;;;;;;;11.77;95.69;102783.88;5026769;28;20075;-65
2022/09/21 05:06:22;;;;;;;5.22;4.43;;;;;;;11.74;95.62;102790.06;5026994;28;20079;-64
2022/09/21 05:11:32;;;;;;;9.90;4.93;;;;;;;11.70;95.62;102788.34;5027001;28;20052;-65
2022/09/21 05:13:57;;;;;;;5.55;4.05;;;;;;;11.70;95.77;102798.00;5027252;28;20037;-66
2022/09/21 05:16:23;;;;;;;10.23;4.63;;;;;;;11.64;95.85;102798.94;5025754;28;20071;-66
2022/09/21 05:18:52;;;;;;;7.43;4.60;;;;;;;11.58;95.88;102798.97;5027169;28;20088;-65
2022/09/21 05:21:17;;;;;;;;;;;;;;;11.58;95.71;102791.94;5041711;28;20078;-64
2022/09/21 05:23:42;;;;;;;7.75;3.95;;;;;;;11.60;95.79;102795.47;5045091;28;20007;-65
2022/09/21 05:26:08;;;;;;;9.48;4.07;;;;;;;11.59;96.12;102796.31;5025673;28;20029;-65
2022/09/21 05:28:33;;;;;;;13.02;4.85;;;;;;;11.61;96.14;102799.84;5027265;28;20029;-65
2022/09/21 05:31:12;;;;;;;7.20;4.45;;;;;;;11.66;95.92;102793.66;5026093;28;20036;-65
2022/09/21 05:33:40;;;;;;;8.70;4.63;;;;;;;11.69;95.89;102798.91;5025145;28;20637;-63
2022/09/21 05:36:31;;;;;;;6.10;4.45;;;;;;;11.74;96.44;102797.13;5026044;28;20039;-63
2022/09/21 05:38:57;;;;;;;8.30;5.13;;;;;;;11.80;96.13;102799.69;4994688;28;20133;-65
2022/09/21 05:41:22;;;;;;;7.43;5.07;;;;;;;11.84;96.26;102801.44;5021329;28;20179;-65
2022/09/21 05:43:48;;;;;;;9.27;5.47;;;;;;;11.89;96.80;102804.03;5026941;28;20029;-65
2022/09/21 05:46:20;;;;;;;11.85;5.47;;;;;;;11.94;96.75;102806.63;5038941;28;20033;-65
2022/09/21 05:49:24;;;;;;;10.10;5.93;;;;;;;12.00;96.76;102807.47;5045706;28;20036;-65
2022/09/21 05:51:57;;;;;;;11.05;5.60;;;;;;;12.04;96.75;102804.81;5016794;28;20656;-66
2022/09/21 05:54:55;;;;;;;9.18;6.03;;;;;;;12.09;96.65;102811.84;5025759;28;20380;-65
2022/09/21 05:57:40;;;;;;;8.70;5.53;;;;;;;12.17;96.69;102813.53;5025733;28;20361;-65
2022/09/21 06:00:12;;;;;;;9.73;5.72;;;;;;;12.20;97.08;102814.41;5024724;28;20100;-67
2022/09/21 06:03:04;;;;;;;9.43;5.40;;;;;;;12.22;96.82;102819.66;5033919;28;20025;-65
2022/09/21 06:05:29;;;;;;;7.38;5.63;;;;;;;12.28;96.90;102810.81;5046557;28;20041;-67
2022/09/21 06:07:54;;;;;;;10.20;6.18;;;;;;;12.30;97.00;102820.47;5045326;28;20352;-65
2022/09/21 06:10:20;;;;;;;10.32;5.55;;;;;;;12.37;96.61;102821.25;5040586;28;20471;-63
2022/09/21 06:12:45;;;;;;;11.88;5.90;;;;;;;12.37;96.88;102822.16;5026296;28;20025;-60
2022/09/21 06:15:13;;;;;;;9.38;5.68;;;;;;;12.35;97.55;102823.06;5025540;28;20096;-60
2022/09/21 06:17:39;;;;;;;10.15;5.63;;;;;;;12.45;97.32;102821.19;5042718;28;20040;-62
2022/09/21 06:20:06;;;;;;;13.63;6.70;;;;;;;12.46;97.19;102823.81;5046474;28;20026;-61
2022/09/21 06:22:32;;;;;;;10.85;6.20;;;;;;;12.50;96.93;102827.31;5045183;28;20063;-59
2022/09/21 06:24:57;;;;;;;12.55;6.20;;;;;;;12.57;96.80;102821.06;5046665;28;20052;-59
2022/09/21 06:27:22;;;;;;;14.55;7.03;;;;;;;12.60;96.62;102825.44;5045310;28;20032;-61
2022/09/21 06:29:48;;;;;;;14.95;6.90;;;;;;;12.64;96.98;102817.47;5026789;28;20095;-60
2022/09/21 06:32:13;;;;;;;12.73;7.15;;;;;;;12.69;96.97;102816.53;5012776;28;20547;-61
2022/09/21 06:34:38;;;;;;;18.50;7.13;;;;;;;12.74;96.58;102820.88;5030699;28;20479;-61
2022/09/21 06:37:04;;;;;;;13.35;6.63;;;;;;;12.80;96.81;102816.44;5049292;28;20096;-61
2022/09/21 06:39:29;;;;;;;12.60;6.55;;;;;;;12.89;96.56;102819.81;5040059;28;20025;-61
2022/09/21 06:41:55;;;;;;;20.70;7.38;;;;;;;12.99;96.21;102823.25;5028741;28;20045;-61
2022/09/21 06:44:21;;;;;;;11.82;6.82;;;;;;;13.06;96.54;102818.75;5023173;28;20034;-62
2022/09/21 06:46:46;;;;;;;16.95;6.82;;;;;;;13.13;96.03;102822.22;5012248;28;20014;-62
2022/09/21 06:49:11;;;;;;;14.68;7.45;;;;;;;13.22;95.91;102829.16;5027994;28;20037;-61
2022/09/21 06:51:37;;;;;;;11.07;6.35;;;;;;;13.38;95.68;102822.75;5028199;28;20432;-62
2022/09/21 06:54:02;;;;;;;9.70;6.13;;;;;;;13.49;95.80;102824.38;5028648;28;20025;-61
2022/09/21 06:56:27;;;;;;;18.42;6.80;;;;;;;13.66;94.95;102820.63;5027557;28;20041;-61
2022/09/21 06:58:54;;;;;;;21.80;6.43;;;;;;;13.76;94.91;102827.53;5029070;28;20057;-63
2022/09/21 07:01:19;;;;;;;14.93;6.15;;;;;;;13.94;94.88;102830.78;5022431;28;20025;-57
2022/09/21 07:03:48;;;;;;;10.98;5.95;;;;;;;14.09;94.12;102827.88;5027497;28;20739;-60
2022/09/21 07:06:14;;;;;;;9.27;5.72;;;;;;;14.22;93.56;102817.94;5037498;28;20391;-60
2022/09/21 07:08:41;;;;;;;13.45;6.00;;;;;;;14.34;93.78;102819.50;5034269;28;20028;-61
2022/09/21 07:11:06;;;;;;;11.93;5.35;;;;;;;14.43;93.17;102828.19;5034521;28;20103;-60
2022/09/21 07:13:31;;;;;;;10.77;5.22;;;;;;;14.49;93.70;102833.38;5046173;28;20175;-60
2022/09/21 07:15:57;;;;;;;15.68;5.53;;;;;;;14.64;92.02;102830.44;5011855;28;20034;-60
2022/09/21 07:18:22;;;;;;;11.23;4.13;;;;;;;14.73;90.97;102825.84;5022026;28;20033;-60
2022/09/21 07:20:48;;;;;;;9.65;4.60;;;;;;;14.82;90.78;102824.81;5019857;28;20103;-61
2022/09/21 07:23:15;;;;;;;7.57;3.70;;;;;;;14.89;90.06;102822.03;5026388;28;20071;-60
2022/09/21 07:25:42;;;;;;;15.73;4.10;;;;;;;14.95;89.25;102821.03;5037611;28;20032;-60
2022/09/21 07:28:08;;;;;;;13.80;3.60;;;;;;;15.08;87.73;102826.94;5048317;28;20021;-59
2022/09/21 07:30:35;;;;;;;13.57;3.22;;;;;;;15.36;86.60;102818.38;5033971;28;20048;-62
2022/09/21 07:33:00;;;;;;;9.45;3.28;;;;;;;15.54;84.68;102822.38;5029623;28;20013;-60
2022/09/21 07:35:26;;;;;;;9.52;2.90;;;;;;;15.69;83.74;102822.06;5042617;28;20371;-56
2022/09/21 07:37:51;;;;;;;5.30;2.65;;;;;;;15.82;82.34;102823.50;5047687;28;20091;-60
2022/09/21 07:40:16;;;;;;;6.20;2.90;;;;;;;15.84;81.51;102821.72;5046302;28;20120;-60
2022/09/21 07:42:43;;;;;;;14.15;3.03;;;;;;;15.86;82.28;102817.22;5048043;28;20475;-61
2022/09/21 07:45:09;;;;;;;15.57;3.05;;;;;;;16.04;81.37;102820.34;5045404;28;20033;-56
2022/09/21 07:47:35;;;;;;;10.35;2.65;;;;;;;16.20;80.13;102825.28;5047390;28;20140;-56
2022/09/21 07:50:00;;;;;;;15.43;2.15;;;;;;;16.29;78.50;102812.59;5045505;28;20035;-60
2022/09/21 07:52:26;;;;;;;12.15;2.72;;;;;;;16.39;78.40;102818.56;5028122;28;20021;-61
2022/09/21 07:54:51;;;;;;;18.10;2.83;;;;;;;16.49;78.88;102826.28;5026668;28;20384;-60
2022/09/21 08:00:02;;;;;;;14.13;2.10;;;;;;;16.45;76.83;102824.63;5025726;28;20137;-60
2022/09/21 08:02:28;;;;;;;15.90;2.53;;;;;;;16.46;75.94;102818.41;5045754;28;20384;-59
2022/09/21 08:04:53;;;;;;;9.20;1.95;;;;;;;16.59;73.81;102817.16;5045719;28;20028;-56
2022/09/21 08:07:18;;;;;;;6.18;1.75;;;;;;;16.55;72.30;102818.13;5013257;28;20045;-59
2022/09/21 08:09:48;;;;;;;8.07;1.33;;;;;;;16.54;73.20;102819.03;5009884;28;20131;-60
2022/09/21 08:12:13;;;;;;;;;;;;;;;16.52;72.74;102819.09;5027008;28;20036;-60
2022/09/21 08:14:39;;;;;;;6.43;1.80;;;;;;;16.61;72.69;102822.41;5025795;28;20417;-58
2022/09/21 08:17:05;;;;;;;9.80;2.30;;;;;;;16.50;71.88;102825.38;5017163;28;20315;-59
2022/09/21 08:19:30;;;;;;;7.13;2.40;;;;;;;16.70;71.44;102830.13;5005708;28;20026;-60
2022/09/21 08:21:56;;;;;;;14.52;2.33;;;;;;;16.49;71.13;102826.28;5019613;28;20104;-62
2022/09/21 08:24:21;;;;;;;7.22;1.98;;;;;;;16.72;70.21;102830.97;5045117;28;20044;-60
2022/09/21 08:26:48;;;;;;;8.35;2.10;;;;;;;16.84;70.75;102834.19;5026341;28;20040;-61
2022/09/21 08:29:14;;;;;;;5.95;1.60;;;;;;;16.98;68.47;102831.13;5007927;28;20030;-60
2022/09/21 08:31:39;;;;;;;6.20;1.85;;;;;;;17.27;68.07;102837.41;5023390;28;20034;-60
2022/09/21 08:34:05;;;;;;;8.50;1.30;;;;;;;17.49;66.88;102847.41;5027196;28;20034;-60
2022/09/21 08:36:30;;;;;;;6.43;1.90;;;;;;;17.42;65.63;102836.06;5025146;28;20065;-61
2022/09/21 08:38:56;;;;;;;10.07;1.88;;;;;;;17.78;65.62;102837.59;5045876;28;20036;-60
2022/09/21 08:41:29;;;;;;;3.35;1.33;;;;;;;17.72;65.61;102836.00;5046393;28;20036;-59
2022/09/21 08:43:59;;;;;;;8.88;1.90;;;;;;;17.92;65.83;102840.69;5032868;28;20033;-60
2022/09/21 08:46:27;;;;;;;8.75;1.50;;;;;;;18.01;65.62;102838.63;5024465;28;20095;-60
2022/09/21 08:49:05;;;;;;;8.50;1.87;;;;;;;17.86;66.71;102838.22;5012239;28;20034;-59
2022/09/21 08:51:35;;;;;;;4.15;1.38;;;;;;;17.85;65.38;102838.28;5006307;28;20639;-60
2022/09/21 08:54:34;;;;;;;8.20;1.90;;;;;;;18.07;66.13;102833.09;5029628;28;20387;-61
2022/09/21 08:57:00;;;;;;;6.72;1.35;;;;;;;18.08;64.99;102840.16;5004806;28;20022;-60
2022/09/21 08:59:25;;;;;;;7.22;1.65;;;;;;;17.70;67.58;102842.31;5017417;28;20055;-60
2022/09/21 09:01:57;;;;;;;5.18;1.38;;;;;;;17.48;68.27;102849.19;5046547;28;20112;-58
2022/09/21 09:04:33;;;;;;;9.60;1.50;;;;;;;17.60;67.52;102860.38;5032426;28;20033;-59
2022/09/21 09:07:20;;;;;;;3.47;1.20;;;;;;;17.51;67.60;102854.44;5025558;28;20520;-58
2022/09/21 09:09:54;;;;;;;5.97;1.55;;;;;;;17.62;67.51;102851.44;5041158;28;20099;-59
2022/09/21 09:12:33;;;;;;;5.10;1.40;;;;;;;17.64;67.97;102857.56;5034750;28;20647;-61
2022/09/21 09:15:34;;;;;;;10.05;1.70;;;;;;;17.94;67.96;102859.28;5025831;28;20045;-60
2022/09/21 09:18:08;;;;;;;7.15;1.60;;;;;;;18.24;65.36;102861.88;5007221;28;20395;-62
2022/09/21 09:20:39;;;;;;;5.18;1.63;;;;;;;18.23;65.23;102862.81;5025978;28;20033;-60
2022/09/21 09:23:26;;;;;;;13.93;1.70;;;;;;;18.42;65.83;102856.81;5006581;28;20468;-59
2022/09/21 09:26:04;;;;;;;6.50;1.73;;;;;;;18.69;64.14;102854.09;5024265;28;20703;-60
2022/09/21 09:28:33;;;;;;;5.53;1.77;;;;;;;18.69;66.16;102852.31;5021574;28;20574;-59
2022/09/21 09:31:03;;;;;;;5.50;1.75;;;;;;;18.62;65.11;102849.91;5021726;28;20017;-60
2022/09/21 09:33:37;;;;;;;9.40;1.83;;;;;;;18.59;63.70;102850.91;5023092;28;20524;-59
2022/09/21 09:36:06;;;;;;;5.05;1.33;;;;;;;18.40;63.51;102850.69;5024097;28;20024;-60
2022/09/21 09:38:55;;;;;;;6.85;1.38;;;;;;;18.44;63.96;102858.53;5021078;28;20242;-60
2022/09/21 09:41:56;;;;;;;5.32;1.98;;;;;;;18.08;66.23;102852.63;5019466;28;20030;-60
2022/09/21 09:44:33;;;;;;;5.43;1.60;;;;;;;18.30;64.99;102851.00;5023718;28;20068;-60
2022/09/21 09:47:07;;;;;;;10.65;1.67;;;;;;;18.39;64.21;102851.63;5037127;28;20025;-60
2022/09/21 09:49:51;;;;;;;5.57;1.40;;;;;;;17.86;66.07;102858.69;5026049;28;20113;-60
2022/09/21 09:52:16;;;;;;;8.55;1.58;;;;;;;17.76;64.48;102853.63;5026571;28;20025;-61
2022/09/21 09:54:42;;;;;;;6.55;1.67;;;;;;;17.77;65.55;102854.53;5030740;28;20071;-57
2022/09/21 09:57:08;;;;;;;10.95;1.63;;;;;;;17.94;65.81;102852.16;5045076;28;20374;-59
2022/09/21 09:59:37;;;;;;;7.63;1.30;;;;;;;17.98;66.31;102860.97;5040188;28;20096;-59
2022/09/21 10:02:06;;;;;;;9.15;1.30;;;;;;;17.94;64.63;102857.50;5006576;28;20034;-58
2022/09/21 10:04:33;;;;;;;2.97;1.10;;;;;;;18.12;64.61;102851.66;5005801;28;20673;-59
2022/09/21 10:06:59;;;;;;;6.45;1.45;;;;;;;18.14;65.36;102853.34;5046495;28;20021;-58
2022/09/21 10:09:30;;;;;;;4.05;1.20;;;;;;;18.32;63.55;102858.97;5045228;28;20363;-60
2022/09/21 10:12:02;;;;;;;5.00;1.10;;;;;;;18.04;61.81;102859.88;5047998;28;20043;-58
2022/09/21 10:14:32;;;;;;;6.85;1.40;;;;;;;18.17;61.38;102855.03;5047703;28;20123;-61
2022/09/21 10:17:03;;;;;;;3.50;1.13;;;;;;;18.49;61.81;102847.69;5047595;28;20454;-60
2022/09/21 10:19:29;;;;;;;5.68;1.42;;;;;;;18.60;61.65;102844.63;5049100;28;20743;-60
2022/09/21 10:21:59;;;;;;;9.60;1.48;;;;;;;18.40;62.26;102835.56;5032813;28;20183;-60
2022/09/21 10:24:34;;;;;;;6.40;1.25;;;;;;;18.65;61.52;102849.81;5028341;28;20076;-60
2022/09/21 10:27:05;;;;;;;4.75;1.35;;;;;;;18.84;59.42;102852.66;5028316;28;20025;-60
2022/09/21 10:29:50;;;;;;;5.63;1.50;;;;;;;18.75;60.86;102839.69;5028451;28;20396;-60
2022/09/21 10:32:18;;;;;;;6.38;1.60;;;;;;;18.97;61.41;102844.19;5020031;28;20041;-58
2022/09/21 10:35:01;;;;;;;6.63;1.25;;;;;;;18.89;59.52;102837.34;5029673;28;20479;-58
2022/09/21 10:37:39;;;;;;;7.13;1.20;;;;;;;19.03;58.57;102842.16;5039082;28;20394;-58
2022/09/21 10:40:20;;;;;;;6.30;1.50;;;;;;;18.69;60.56;102838.97;5047649;28;20060;-61
2022/09/21 10:42:47;;;;;;;3.78;1.27;;;;;;;19.27;59.70;102835.97;5030986;28;20035;-65
2022/09/21 10:45:28;;;;;;;6.28;1.65;;;;;;;19.52;56.98;102834.97;5029413;28;20041;-67
2022/09/21 10:48:05;;;;;;;2.85;1.27;;;;;;;19.43;56.89;102830.88;5029167;28;20117;-64
2022/09/21 10:50:45;;;;;;;8.25;1.15;;;;;;;19.67;55.51;102834.38;5029880;28;20626;-54
2022/09/21 10:53:29;;;;;;;6.88;1.45;;;;;;;19.97;56.61;102829.59;5048084;28;20032;-64
2022/09/21 10:55:59;;;;;;;7.53;1.45;;;;;;;19.93;57.32;102831.56;5041498;28;20056;-58
2022/09/21 10:58:25;;;;;;;5.75;1.20;;;;;;;20.30;57.71;102823.75;5027855;28;20029;-58
2022/09/21 11:00:51;;;;;;;7.07;1.20;;;;;;;20.30;58.01;102821.09;5027219;28;20028;-58
2022/09/21 11:03:34;;;;;;;4.97;1.30;;;;;;;20.17;56.87;102826.97;5029905;28;20368;-60
2022/09/21 11:06:06;;;;;;;7.50;1.27;;;;;;;20.14;55.69;102821.75;5025298;28;20539;-59
2022/09/21 11:08:42;;;;;;;2.70;1.40;;;;;;;19.94;58.20;102825.25;5028857;28;20456;-59
2022/09/21 11:11:23;;;;;;;5.32;1.30;;;;;;;20.07;55.25;102826.50;5026899;28;20577;-59
2022/09/21 11:14:26;;;;;;;6.70;1.27;;;;;;;20.05;57.01;102823.00;5025927;28;20050;-60
2022/09/21 11:17:13;;;;;;;6.63;1.40;;;;;;;20.40;54.82;102819.75;5036014;28;20033;-58
2022/09/21 11:19:45;;;;;;;10.52;1.60;;;;;;;20.26;54.52;102819.50;5048923;28;20029;-58
2022/09/21 11:22:39;;;;;;;3.25;1.05;;;;;;;20.12;54.07;102815.59;5045039;28;20036;-59
2022/09/21 11:25:36;;;;;;;3.17;1.13;;;;;;;20.42;56.33;102815.19;5047411;28;20387;-59
2022/09/21 11:28:12;;;;;;;5.45;1.38;;;;;;;20.78;55.41;102818.94;5020079;28;20454;-59
2022/09/21 11:31:05;;;;;;;7.20;1.45;;;;;;;20.92;51.45;102817.47;5022729;28;20125;-59
2022/09/21 11:33:36;;;;;;;3.80;1.10;;;;;;;21.24;54.70;102815.06;4994014;28;20100;-59
2022/09/21 11:36:10;;;;;;;4.25;1.23;;;;;;;21.59;52.44;102808.94;5008292;28;20053;-59
2022/09/21 11:38:45;;;;;;;2.50;0.90;;;;;;;21.36;49.69;102815.41;5022722;28;20026;-59
2022/09/21 11:41:43;;;;;;;2.00;0.47;;;;;;;21.29;47.45;102812.16;5028240;28;20029;-59
2022/09/21 11:44:39;;;;;;;7.97;1.13;;;;;;;21.11;48.18;102805.88;5025548;28;20033;-59
2022/09/21 11:47:17;;;;;;;6.15;1.10;;;;;;;21.39;47.22;102816.13;5026465;28;20045;-57
2022/09/21 11:49:51;;;;;;;4.30;1.05;;;;;;;21.94;48.05;102811.66;5008629;28;20030;-59